Terminal Aerodrome Forecast
Issued by NWS Mt. Holly, NJ

Home | Current Version | Previous Version | Text Only | Print | Product List | Glossary On
Versions: 1 2 3 4 5 6 7 8 9 10 11 12 13 14 15 16 17 18 19
000
FTUS41 KPHI 221100
TAFABE
TAF
KABE 221127Z 2212/2312 VRB02KT P6SM OVC020
     FM221800 09005KT P6SM SCT025 OVC060
      TEMPO 2218/2221 6SM -RA
     FM222100 08004KT 5SM -RA BKN025 OVC050
     FM230500 07004KT 4SM -RA BR BKN007 OVC015
     FM230800 07005KT 2SM -RADZ BR OVC004=

USA.gov is the U.S. government's official web portal to all federal, state and local government web resources and services.